Time;durP1;ratioP1;P1;durP2;ratioP2;P2;SDS_P1;SDS_P2;PMS_P1;PMS_P2;Temp;Humidity;BMP_temperature;BMP_pressure;BME280_temperature;BME280_humidity;BME280_pressure;Samples;Min_cycle;Max_cycle;Signal;HPM_P1;HPM_P2
2023/01/27 00:00:38;;;;;;;1.48;1.38;;;;;;;6.80;49.48;94287.75;4986222;28;20199;-65
2023/01/27 00:03:05;;;;;;;0.60;0.60;;;;;;;6.87;49.60;94288.34;4971474;28;20260;-65
2023/01/27 00:05:32;;;;;;;4.28;1.38;;;;;;;6.96;49.83;94275.63;4971288;28;20214;-65
2023/01/27 00:07:59;;;;;;;0.93;0.85;;;;;;;6.96;49.23;94281.63;4971713;28;20199;-64
2023/01/27 00:10:27;;;;;;;0.03;0.03;;;;;;;6.99;49.43;94275.94;4970893;28;20202;-65
2023/01/27 00:15:39;;;;;;;9.75;2.67;;;;;;;6.87;50.20;94275.31;4971072;28;20238;-65
2023/01/27 00:18:06;;;;;;;0.38;0.38;;;;;;;6.66;50.28;94270.94;4971465;28;20195;-65
2023/01/27 00:26:12;;;;;;;8.98;1.98;;;;;;;6.60;50.79;94256.31;4970578;28;20214;-64
2023/01/27 00:28:42;;;;;;;0.98;0.80;;;;;;;6.48;50.48;94227.03;4970583;28;20229;-64
2023/01/27 00:34:07;;;;;;;0.28;0.28;;;;;;;6.82;49.95;94248.44;4971226;28;20200;-64
2023/01/27 00:36:38;;;;;;;0.15;0.15;;;;;;;7.01;50.10;94247.81;4963227;28;20270;-64
2023/01/27 00:39:06;;;;;;;0.75;0.75;;;;;;;6.99;49.88;94249.88;4949870;28;20211;-64
2023/01/27 00:41:33;;;;;;;0.00;0.00;;;;;;;6.47;50.64;94256.69;4967727;28;20207;-64
2023/01/27 00:44:01;;;;;;;7.63;1.75;;;;;;;6.60;50.77;94258.91;4985915;28;20203;-64
2023/01/27 00:46:28;;;;;;;0.13;0.13;;;;;;;6.63;50.08;94252.41;4969018;28;20709;-64
2023/01/27 00:48:55;;;;;;;0.20;0.20;;;;;;;6.61;50.82;94259.69;4970377;28;20658;-66
2023/01/27 00:51:22;;;;;;;0.00;0.00;;;;;;;6.41;54.71;94267.28;4985054;28;20223;-65
2023/01/27 00:53:49;;;;;;;0.82;0.63;;;;;;;6.80;52.96;94272.13;4957430;28;20251;-66
2023/01/27 00:56:16;;;;;;;0.30;0.30;;;;;;;6.78;51.25;94255.97;4969583;28;20270;-64
2023/01/27 00:58:43;;;;;;;0.10;0.10;;;;;;;6.64;51.00;94248.81;4956716;28;20805;-64
2023/01/27 01:01:13;;;;;;;0.20;0.20;;;;;;;6.83;50.55;94263.81;4969665;28;20258;-65
2023/01/27 01:03:41;;;;;;;0.15;0.15;;;;;;;6.75;50.83;94261.66;4956198;28;20623;-64
2023/01/27 01:06:11;;;;;;;0.75;0.75;;;;;;;6.95;50.87;94259.22;4969864;28;20282;-64
2023/01/27 01:08:38;;;;;;;0.00;0.00;;;;;;;6.88;50.83;94252.63;4969730;28;20677;-65
2023/01/27 01:11:06;;;;;;;2.00;1.65;;;;;;;6.81;50.75;94255.47;4970005;28;20219;-65
2023/01/27 01:13:33;;;;;;;0.73;0.47;;;;;;;6.84;50.83;94246.38;4970327;28;20262;-64
2023/01/27 01:16:12;;;;;;;1.38;0.50;;;;;;;6.90;50.70;94251.38;4970267;28;20195;-67
2023/01/27 01:18:41;;;;;;;11.25;2.25;;;;;;;6.46;51.15;94249.91;4968587;28;20294;-66
2023/01/27 01:21:09;;;;;;;3.00;1.65;;;;;;;6.72;51.20;94249.13;4969695;28;20277;-65
2023/01/27 01:23:41;;;;;;;0.15;0.15;;;;;;;6.66;50.71;94268.34;4952732;28;20207;-65
2023/01/27 01:26:10;;;;;;;0.57;0.57;;;;;;;6.79;50.99;94260.13;4969434;28;20274;-66
2023/01/27 01:28:38;;;;;;;1.15;1.10;;;;;;;6.66;51.21;94250.09;4969786;28;20191;-65
2023/01/27 01:31:12;;;;;;;0.80;0.80;;;;;;;6.71;50.75;94252.78;4956319;28;20227;-65
2023/01/27 01:33:39;;;;;;;0.10;0.10;;;;;;;6.67;50.39;94249.09;4969718;28;20744;-66
2023/01/27 01:36:11;;;;;;;0.65;0.65;;;;;;;6.60;50.60;94256.31;4955155;28;20208;-65
2023/01/27 01:38:38;;;;;;;3.83;1.50;;;;;;;6.62;50.75;94262.06;4969438;28;20740;-65
2023/01/27 01:41:07;;;;;;;3.50;1.65;;;;;;;6.72;50.78;94275.16;4969383;28;20601;-65
2023/01/27 01:43:34;;;;;;;0.47;0.47;;;;;;;6.65;50.62;94273.78;4957216;28;20753;-66
2023/01/27 01:46:01;;;;;;;3.85;2.13;;;;;;;6.58;50.60;94274.00;4969222;28;20549;-65
2023/01/27 01:48:31;;;;;;;0.80;0.80;;;;;;;6.80;50.54;94282.53;4969913;28;20207;-65
2023/01/27 01:51:03;;;;;;;0.38;0.38;;;;;;;6.62;50.39;94261.28;4983711;28;20199;-65
2023/01/27 01:53:36;;;;;;;0.03;0.03;;;;;;;6.71;50.94;94250.19;4969680;28;20215;-66
2023/01/27 01:56:09;;;;;;;0.63;0.63;;;;;;;6.39;51.50;94249.31;4950914;28;20212;-64
2023/01/27 01:58:38;;;;;;;5.57;3.35;;;;;;;6.43;51.22;94245.22;4948524;28;20200;-67
2023/01/27 02:01:06;;;;;;;0.08;0.08;;;;;;;6.45;51.01;94243.16;4968175;28;20195;-64
2023/01/27 02:03:36;;;;;;;0.43;0.43;;;;;;;6.54;50.97;94241.69;4969875;28;20286;-65
2023/01/27 02:06:04;;;;;;;0.08;0.08;;;;;;;6.43;50.94;94227.00;4978906;28;20203;-65
2023/01/27 02:08:38;;;;;;;1.55;1.45;;;;;;;6.61;50.94;94223.25;4967555;28;20742;-64
2023/01/27 02:11:07;;;;;;;2.65;0.88;;;;;;;6.62;50.58;94217.81;4963278;28;20199;-65
2023/01/27 02:13:38;;;;;;;0.10;0.10;;;;;;;6.67;51.04;94204.84;4969514;28;20673;-65
2023/01/27 02:16:07;;;;;;;0.80;0.68;;;;;;;6.71;51.06;94195.50;4973029;28;20213;-66
2023/01/27 02:18:34;;;;;;;1.17;0.43;;;;;;;6.56;51.30;94192.78;4973030;28;20234;-65
2023/01/27 02:21:02;;;;;;;0.70;0.70;;;;;;;6.48;50.99;94201.00;4973235;28;20266;-65
2023/01/27 02:23:59;;;;;;;0.10;0.10;;;;;;;6.35;51.16;94205.84;4973210;28;20203;-66
2023/01/27 02:26:32;;;;;;;0.10;0.10;;;;;;;6.47;51.30;94191.66;4972290;28;20210;-66
2023/01/27 02:29:04;;;;;;;7.88;1.50;;;;;;;6.57;51.25;94193.56;4952468;28;20761;-66
2023/01/27 02:31:31;;;;;;;0.10;0.10;;;;;;;6.72;50.90;94189.25;4967900;28;20231;-66
2023/01/27 02:34:18;;;;;;;1.00;1.00;;;;;;;6.61;51.10;94198.00;4973688;28;20215;-64
2023/01/27 02:36:49;;;;;;;0.08;0.08;;;;;;;6.56;50.91;94197.97;4953081;28;20204;-66
2023/01/27 02:39:21;;;;;;;0.20;0.20;;;;;;;6.62;51.02;94197.00;4971870;28;20688;-66
2023/01/27 02:41:55;;;;;;;3.65;1.40;;;;;;;6.57;50.94;94194.31;4952600;28;20222;-66
2023/01/27 02:44:22;;;;;;;1.17;1.13;;;;;;;6.42;51.55;94196.81;4966994;28;20206;-66
2023/01/27 02:46:49;;;;;;;0.55;0.55;;;;;;;6.51;51.29;94190.13;4972301;28;20206;-67
2023/01/27 02:49:16;;;;;;;0.63;0.63;;;;;;;6.54;51.02;94200.03;4987656;28;20206;-64
2023/01/27 02:51:43;;;;;;;0.40;0.40;;;;;;;6.69;51.00;94205.38;4962940;28;20385;-66
2023/01/27 02:54:10;;;;;;;2.08;1.70;;;;;;;6.35;51.70;94214.41;4970085;28;20274;-64
2023/01/27 02:56:37;;;;;;;2.22;1.63;;;;;;;6.64;51.69;94207.16;4962349;28;20278;-65
2023/01/27 02:59:06;;;;;;;2.45;1.45;;;;;;;6.46;52.09;94210.13;4970817;28;20327;-64
2023/01/27 03:01:39;;;;;;;1.70;1.60;;;;;;;6.64;51.42;94200.09;4976870;28;20211;-65
2023/01/27 03:04:08;;;;;;;0.70;0.70;;;;;;;6.66;51.26;94199.88;4970558;28;20641;-65
2023/01/27 03:06:34;;;;;;;0.73;0.73;;;;;;;6.53;51.70;94198.44;4959291;28;20746;-65
2023/01/27 03:09:03;;;;;;;0.45;0.45;;;;;;;6.74;50.58;94186.41;4971150;28;20195;-65
2023/01/27 03:14:17;;;;;;;0.70;0.68;;;;;;;6.72;50.94;94189.25;4976551;28;20734;-66
2023/01/27 03:19:31;;;;;;;36.13;2.28;;;;;;;6.66;51.00;94177.22;4974974;28;20302;-66
2023/01/27 03:22:00;;;;;;;1.05;0.68;;;;;;;6.58;51.58;94163.88;4967176;28;20659;-66
2023/01/27 03:24:29;;;;;;;0.22;0.22;;;;;;;6.57;51.26;94172.75;4967916;28;20211;-67
2023/01/27 03:27:00;;;;;;;0.00;0.00;;;;;;;6.72;50.60;94165.81;4967577;28;20262;-66
2023/01/27 03:29:56;;;;;;;4.78;1.65;;;;;;;6.54;51.93;94158.41;4977208;28;20278;-65
2023/01/27 03:32:27;;;;;;;47.30;2.60;;;;;;;6.67;50.92;94157.19;4967242;28;20303;-66
2023/01/27 03:35:47;;;;;;;0.03;0.03;;;;;;;6.61;51.19;94147.75;4968955;28;20203;-66
2023/01/27 03:46:35;;;;;;;1.23;0.82;;;;;;;6.51;51.88;94126.88;4967341;28;20211;-64
2023/01/27 03:49:01;;;;;;;0.00;0.00;;;;;;;6.60;51.11;94120.97;4964356;28;20640;-65
2023/01/27 03:51:28;;;;;;;7.93;1.70;;;;;;;6.60;52.08;94128.00;4971301;28;20227;-68
2023/01/27 03:53:55;;;;;;;3.53;1.58;;;;;;;6.69;51.53;94129.88;4971969;28;20239;-64
2023/01/27 03:56:22;;;;;;;10.32;2.08;;;;;;;6.85;51.20;94128.94;4958180;28;20187;-66
2023/01/27 03:58:49;;;;;;;1.58;1.42;;;;;;;6.69;51.70;94119.47;4971586;28;20203;-67
2023/01/27 04:01:19;;;;;;;0.25;0.25;;;;;;;6.55;51.65;94128.72;4971422;28;20207;-67
2023/01/27 04:09:39;;;;;;;0.28;0.28;;;;;;;6.27;52.25;94178.44;4987883;28;20217;-65
2023/01/27 04:12:06;;;;;;;0.22;0.22;;;;;;;6.00;53.29;94188.06;4987711;28;20689;-66
2023/01/27 04:14:38;;;;;;;0.00;0.00;;;;;;;6.47;52.03;94194.25;4979604;28;20593;-66
2023/01/27 04:17:13;;;;;;;0.20;0.20;;;;;;;6.61;51.51;94216.22;4970279;28;20297;-64
2023/01/27 04:19:41;;;;;;;0.00;0.00;;;;;;;6.72;51.27;94207.47;4970829;28;20610;-67
2023/01/27 04:22:10;;;;;;;2.22;1.30;;;;;;;6.87;50.43;94205.00;4950111;28;20199;-65
2023/01/27 04:24:37;;;;;;;0.00;0.00;;;;;;;6.77;50.62;94188.53;4965027;28;20699;-64
2023/01/27 04:27:07;;;;;;;1.10;0.82;;;;;;;6.88;51.29;94196.16;4971174;28;20203;-66
2023/01/27 04:29:40;;;;;;;0.75;0.55;;;;;;;6.88;51.12;94206.56;4971119;28;20221;-64
2023/01/27 04:32:09;;;;;;;0.00;0.00;;;;;;;6.92;50.35;94215.44;4957787;28;20330;-65
2023/01/27 04:34:36;;;;;;;0.00;0.00;;;;;;;6.68;51.11;94223.84;4970825;28;20673;-65
2023/01/27 04:37:06;;;;;;;0.20;0.20;;;;;;;6.83;50.67;94224.75;4970767;28;20210;-65
2023/01/27 04:39:33;;;;;;;0.00;0.00;;;;;;;6.71;51.63;94213.72;4970678;28;20290;-66
2023/01/27 04:42:01;;;;;;;0.90;0.52;;;;;;;6.64;51.47;94218.31;4970464;28;20279;-65
2023/01/27 04:44:28;;;;;;;0.57;0.57;;;;;;;6.59;51.29;94228.69;4970847;28;20250;-66
2023/01/27 04:46:55;;;;;;;0.00;0.00;;;;;;;6.39;51.40;94228.50;4970278;28;20310;-64
2023/01/27 04:49:22;;;;;;;0.20;0.20;;;;;;;6.61;51.11;94216.22;4970280;28;20666;-67
2023/01/27 04:51:49;;;;;;;0.40;0.30;;;;;;;6.11;52.50;94215.75;4969747;28;20230;-65
2023/01/27 04:54:15;;;;;;;1.10;0.95;;;;;;;6.59;51.81;94227.91;4970642;28;20647;-66
2023/01/27 04:57:00;;;;;;;0.10;0.10;;;;;;;6.74;51.64;94231.44;4970697;28;20246;-65
2023/01/27 04:59:28;;;;;;;0.03;0.03;;;;;;;6.91;50.73;94226.13;4970439;28;20294;-68
2023/01/27 05:01:55;;;;;;;0.45;0.45;;;;;;;6.78;51.05;94221.31;4969635;28;20265;-64
2023/01/27 05:04:22;;;;;;;0.15;0.15;;;;;;;6.70;51.54;94229.56;4970643;28;20663;-65
2023/01/27 05:06:49;;;;;;;0.25;0.25;;;;;;;6.73;50.79;94229.84;4970086;28;20274;-66
2023/01/27 05:09:16;;;;;;;0.22;0.22;;;;;;;6.79;50.94;94223.69;4970161;28;20203;-64
2023/01/27 05:11:42;;;;;;;0.75;0.38;;;;;;;6.43;52.02;94228.81;4969557;28;20195;-65
2023/01/27 05:14:09;;;;;;;0.10;0.10;;;;;;;6.67;51.26;94220.47;4961604;28;20251;-66
2023/01/27 05:16:37;;;;;;;0.43;0.28;;;;;;;6.86;50.76;94210.47;4964734;28;20206;-65
2023/01/27 05:19:04;;;;;;;0.00;0.00;;;;;;;6.36;51.90;94223.81;4970446;28;20244;-66
2023/01/27 05:21:31;;;;;;;0.22;0.22;;;;;;;6.45;52.60;94230.13;4969180;28;20203;-69
2023/01/27 05:23:58;;;;;;;0.00;0.00;;;;;;;6.62;51.36;94217.81;4966081;28;20192;-65
2023/01/27 05:26:26;;;;;;;0.00;0.00;;;;;;;6.53;51.86;94203.66;4962865;28;20202;-66
2023/01/27 05:28:56;;;;;;;0.00;0.00;;;;;;;6.60;51.97;94204.25;4957299;28;20229;-65
2023/01/27 05:31:25;;;;;;;0.30;0.30;;;;;;;6.49;51.99;94199.19;4969304;28;20274;-66
2023/01/27 05:33:54;;;;;;;1.05;0.98;;;;;;;6.40;51.69;94204.06;4970580;28;20314;-65
2023/01/27 05:36:23;;;;;;;0.32;0.20;;;;;;;6.39;51.62;94197.28;4969511;28;20568;-68
2023/01/27 05:38:50;;;;;;;0.15;0.15;;;;;;;6.53;51.99;94203.66;4970225;28;20203;-65
2023/01/27 05:41:18;;;;;;;3.55;1.88;;;;;;;6.53;52.78;94208.84;4968210;28;20206;-66
2023/01/27 05:43:51;;;;;;;0.22;0.15;;;;;;;6.48;52.25;94167.19;4967840;28;20203;-70
2023/01/27 05:46:24;;;;;;;4.45;1.13;;;;;;;6.49;52.64;94176.56;4967284;28;20294;-67
2023/01/27 05:48:53;;;;;;;0.00;0.00;;;;;;;6.50;52.63;94183.34;4971823;28;20207;-67
2023/01/27 05:51:22;;;;;;;1.20;0.85;;;;;;;6.73;51.62;94193.41;4965208;28;20635;-67
2023/01/27 05:53:50;;;;;;;0.30;0.30;;;;;;;5.93;53.05;94197.88;4967157;28;20262;-67
2023/01/27 05:56:18;;;;;;;0.00;0.00;;;;;;;6.36;52.10;94202.19;4967584;28;20330;-68
2023/01/27 05:58:45;;;;;;;0.90;0.90;;;;;;;6.28;52.47;94206.03;4968068;28;20843;-67
2023/01/27 06:01:15;;;;;;;0.00;0.00;;;;;;;6.08;54.13;94206.59;4968503;28;20266;-66
2023/01/27 06:03:43;;;;;;;0.00;0.00;;;;;;;5.62;54.21;94221.91;4969619;28;20203;-70
2023/01/27 06:06:11;;;;;;;0.22;0.22;;;;;;;5.77;53.66;94214.25;4961191;28;20194;-66
2023/01/27 06:08:39;;;;;;;0.03;0.03;;;;;;;6.07;53.36;94205.06;4964256;28;20217;-66
2023/01/27 06:11:06;;;;;;;0.00;0.00;;;;;;;6.41;52.60;94200.44;4969201;28;20477;-67
2023/01/27 06:13:37;;;;;;;0.08;0.08;;;;;;;6.45;52.24;94200.72;4969038;28;20238;-67
2023/01/27 06:16:10;;;;;;;0.00;0.00;;;;;;;6.39;52.52;94197.28;4968729;28;20199;-65
2023/01/27 06:18:38;;;;;;;0.15;0.15;;;;;;;6.17;52.34;94204.34;4969036;28;20207;-64
2023/01/27 06:21:07;;;;;;;1.15;1.10;;;;;;;6.11;52.60;94207.94;4969042;28;20290;-65
2023/01/27 06:23:34;;;;;;;0.00;0.00;;;;;;;6.18;52.30;94218.16;4968973;28;20210;-66
2023/01/27 06:26:05;;;;;;;0.55;0.55;;;;;;;5.93;53.11;94209.03;4969026;28;20282;-66
2023/01/27 06:28:32;;;;;;;0.00;0.00;;;;;;;5.95;53.08;94219.97;4968854;28;20234;-65
2023/01/27 06:31:11;;;;;;;0.52;0.47;;;;;;;5.89;53.08;94212.38;4968139;28;20759;-65
2023/01/27 06:33:38;;;;;;;0.00;0.00;;;;;;;6.16;52.86;94213.19;4969004;28;20226;-65
2023/01/27 06:36:13;;;;;;;1.10;0.80;;;;;;;6.27;52.55;94204.47;4954790;28;20713;-64
2023/01/27 06:38:40;;;;;;;0.00;0.00;;;;;;;6.07;52.58;94214.66;4969357;28;20634;-64
2023/01/27 06:41:07;;;;;;;0.00;0.00;;;;;;;6.23;52.49;94213.00;4968552;28;20721;-67
2023/01/27 06:43:34;;;;;;;0.38;0.38;;;;;;;5.73;53.30;94218.41;4968937;28;20195;-65
2023/01/27 06:46:01;;;;;;;0.00;0.00;;;;;;;5.23;54.27;94225.50;4968750;28;20196;-65
2023/01/27 06:48:31;;;;;;;0.00;0.00;;;;;;;5.20;55.00;94233.78;4969186;28;20253;-64
2023/01/27 06:50:58;;;;;;;0.00;0.00;;;;;;;5.84;53.38;94230.50;4968778;28;20273;-65
2023/01/27 06:53:25;;;;;;;0.10;0.10;;;;;;;5.84;53.05;94240.88;4973002;28;20254;-64
2023/01/27 06:56:00;;;;;;;0.00;0.00;;;;;;;5.81;52.99;94234.34;4972551;28;20345;-65
2023/01/27 06:58:27;;;;;;;0.00;0.00;;;;;;;5.86;53.03;94234.44;4973225;28;20202;-65
2023/01/27 07:00:55;;;;;;;0.85;0.38;;;;;;;6.09;52.27;94243.81;4972002;28;20188;-66
2023/01/27 07:03:23;;;;;;;0.10;0.10;;;;;;;6.48;51.79;94242.66;4960217;28;20204;-66
2023/01/27 07:05:51;;;;;;;0.43;0.43;;;;;;;6.00;51.54;94227.06;4970885;28;20199;-67
2023/01/27 07:08:18;;;;;;;0.15;0.15;;;;;;;6.09;51.98;94243.81;4972674;28;20227;-65
2023/01/27 07:10:45;;;;;;;0.00;0.00;;;;;;;6.50;51.59;94251.00;4972386;28;20199;-66
2023/01/27 07:13:13;;;;;;;0.10;0.10;;;;;;;6.42;51.25;94248.84;4975003;28;20227;-64
2023/01/27 07:15:41;;;;;;;0.20;0.15;;;;;;;6.61;50.68;94237.06;4951681;28;20199;-67
2023/01/27 07:18:09;;;;;;;0.70;0.40;;;;;;;6.60;50.86;94230.28;4966315;28;20228;-67
2023/01/27 07:20:36;;;;;;;0.68;0.63;;;;;;;5.98;51.83;94232.50;4971906;28;20270;-66
2023/01/27 07:23:04;;;;;;;0.65;0.60;;;;;;;5.95;52.21;94240.78;4986690;28;20206;-66
2023/01/27 07:25:33;;;;;;;0.00;0.00;;;;;;;6.58;51.71;94237.56;4971963;28;20199;-65
2023/01/27 07:28:01;;;;;;;0.08;0.08;;;;;;;6.43;51.89;94224.38;4972497;28;20191;-66
2023/01/27 07:30:28;;;;;;;0.20;0.20;;;;;;;6.40;51.65;94235.31;4971552;28;20239;-66
2023/01/27 07:33:02;;;;;;;0.03;0.03;;;;;;;6.50;51.10;94240.59;4971755;28;20237;-66
2023/01/27 07:35:29;;;;;;;0.05;0.05;;;;;;;6.72;51.03;94233.50;4972262;28;20605;-65
2023/01/27 07:37:56;;;;;;;0.00;0.00;;;;;;;6.61;50.84;94241.47;4971905;28;20803;-66
2023/01/27 07:40:24;;;;;;;0.20;0.20;;;;;;;6.79;50.57;94223.69;4972077;28;20608;-66
2023/01/27 07:42:50;;;;;;;1.23;1.13;;;;;;;6.73;50.52;94235.06;4972233;28;20227;-67
2023/01/27 07:45:18;;;;;;;0.43;0.43;;;;;;;6.78;50.61;94236.94;4962206;28;20258;-66
2023/01/27 07:47:45;;;;;;;0.00;0.00;;;;;;;6.94;50.48;94236.81;4965246;28;20310;-67
2023/01/27 07:50:12;;;;;;;1.23;0.63;;;;;;;6.80;50.32;94235.69;4960871;28;20200;-65
2023/01/27 07:52:39;;;;;;;0.00;0.00;;;;;;;6.57;50.48;94235.97;4967399;28;20215;-67
2023/01/27 07:55:07;;;;;;;0.10;0.10;;;;;;;6.79;50.17;94235.91;4970756;28;20202;-66
2023/01/27 07:57:34;;;;;;;0.00;0.00;;;;;;;6.80;50.53;94246.09;4971632;28;20635;-68
2023/01/27 08:00:01;;;;;;;0.20;0.20;;;;;;;6.79;50.82;94239.28;4971353;28;20655;-65
2023/01/27 08:02:37;;;;;;;0.00;0.00;;;;;;;7.01;50.45;94236.59;4971180;28;20210;-65
2023/01/27 08:05:04;;;;;;;0.40;0.40;;;;;;;6.95;50.21;94237.63;4971341;28;20239;-66
2023/01/27 08:07:31;;;;;;;0.00;0.00;;;;;;;7.02;50.54;94244.19;4971783;28;20209;-66
2023/01/27 08:09:58;;;;;;;0.20;0.20;;;;;;;7.12;49.63;94233.03;4971217;28;20345;-66
2023/01/27 08:12:25;;;;;;;1.20;1.10;;;;;;;7.05;49.77;94243.69;4971349;28;20731;-67
2023/01/27 08:14:52;;;;;;;0.08;0.08;;;;;;;6.84;49.69;94225.56;4971154;28;20663;-67
2023/01/27 08:17:19;;;;;;;1.00;0.90;;;;;;;6.96;49.27;94234.75;4959091;28;20203;-66
2023/01/27 08:19:49;;;;;;;0.80;0.80;;;;;;;6.48;49.63;94232.25;4970722;28;20315;-66
2023/01/27 08:22:20;;;;;;;0.35;0.30;;;;;;;6.57;49.44;94225.56;4971264;28;20262;-67
2023/01/27 08:24:50;;;;;;;1.50;1.40;;;;;;;6.40;50.00;94237.91;4970347;28;20558;-66
2023/01/27 08:27:17;;;;;;;0.17;0.17;;;;;;;6.97;48.76;94238.91;4958501;28;20255;-65
2023/01/27 08:29:43;;;;;;;0.65;0.65;;;;;;;6.61;49.25;94247.47;4970732;28;20207;-66
2023/01/27 08:32:10;;;;;;;0.00;0.00;;;;;;;6.71;49.95;94246.78;4971148;28;20234;-66
2023/01/27 08:34:41;;;;;;;0.52;0.52;;;;;;;6.70;50.04;94240.78;4970550;28;20258;-66
2023/01/27 08:37:07;;;;;;;0.00;0.00;;;;;;;6.82;50.04;94231.00;4971360;28;20253;-66
2023/01/27 08:39:34;;;;;;;0.00;0.00;;;;;;;6.49;49.25;94248.66;4970439;28;20631;-68
2023/01/27 08:42:02;;;;;;;0.43;0.43;;;;;;;6.43;49.47;94247.81;4970655;28;20219;-69
2023/01/27 08:44:30;;;;;;;2.67;2.47;;;;;;;6.41;49.50;94256.88;4971192;28;20216;-67
2023/01/27 08:46:57;;;;;;;0.03;0.03;;;;;;;5.95;50.25;94247.78;4970695;28;20191;-65
2023/01/27 08:49:23;;;;;;;0.00;0.00;;;;;;;6.24;50.33;94251.00;4970673;28;20199;-68
2023/01/27 08:51:50;;;;;;;0.10;0.10;;;;;;;6.72;50.55;94254.34;4970870;28;20683;-65
2023/01/27 08:54:17;;;;;;;0.35;0.35;;;;;;;7.03;50.00;94248.34;4971053;28;20230;-66
2023/01/27 08:56:44;;;;;;;0.08;0.08;;;;;;;6.68;48.67;94258.47;4970784;28;20207;-67
2023/01/27 08:59:11;;;;;;;1.85;1.13;;;;;;;6.57;49.44;94246.38;4970625;28;20638;-66
2023/01/27 09:01:40;;;;;;;0.57;0.52;;;;;;;6.73;49.26;94245.47;4985337;28;20648;-66
2023/01/27 09:04:07;;;;;;;1.20;1.10;;;;;;;6.62;48.96;94243.06;4970388;28;20250;-68
2023/01/27 09:06:34;;;;;;;2.08;1.75;;;;;;;6.72;49.53;94249.13;4970444;28;20199;-67
2023/01/27 09:09:07;;;;;;;0.00;0.00;;;;;;;6.61;49.48;94247.47;4970341;28;20205;-66
2023/01/27 09:11:40;;;;;;;0.52;0.52;;;;;;;6.66;49.07;94233.72;4970280;28;20218;-68
2023/01/27 09:14:07;;;;;;;0.30;0.30;;;;;;;6.74;49.75;94236.66;4962048;28;20711;-66
2023/01/27 09:16:34;;;;;;;0.05;0.05;;;;;;;6.89;49.22;94231.59;4964171;28;20294;-66
2023/01/27 09:19:01;;;;;;;0.10;0.10;;;;;;;5.88;50.12;94241.97;4970778;28;20217;-66
2023/01/27 09:21:28;;;;;;;0.55;0.55;;;;;;;6.33;49.79;94245.13;4969793;28;20269;-65
2023/01/27 09:23:55;;;;;;;0.00;0.00;;;;;;;6.29;50.24;94238.81;4970607;28;20591;-65
2023/01/27 09:26:22;;;;;;;0.05;0.05;;;;;;;6.11;50.25;94236.56;4970209;28;20210;-65
2023/01/27 09:28:49;;;;;;;1.85;1.65;;;;;;;6.20;50.61;94229.88;4970177;28;20227;-65
2023/01/27 09:31:15;;;;;;;1.10;1.02;;;;;;;5.93;50.63;94239.47;4969703;28;20592;-66
2023/01/27 09:33:42;;;;;;;0.00;0.00;;;;;;;5.47;52.18;94229.47;4962693;28;20241;-66
2023/01/27 09:36:17;;;;;;;0.43;0.43;;;;;;;5.87;51.80;94219.63;4963867;28;20211;-67
2023/01/27 09:38:53;;;;;;;0.20;0.20;;;;;;;6.01;51.11;94210.41;4970413;28;20301;-66
2023/01/27 09:41:41;;;;;;;0.95;0.90;;;;;;;5.95;51.34;94216.59;4969192;28;20559;-65
2023/01/27 09:44:34;;;;;;;0.98;0.90;;;;;;;5.60;52.63;94218.75;4970142;28;20203;-64
2023/01/27 09:47:26;;;;;;;0.00;0.00;;;;;;;6.22;51.95;94206.22;4975586;28;20651;-66
2023/01/27 09:50:09;;;;;;;2.20;1.75;;;;;;;5.61;52.41;94215.09;4969836;28;20202;-65
2023/01/27 09:52:57;;;;;;;0.00;0.00;;;;;;;5.66;53.08;94212.56;4969875;28;20693;-66
2023/01/27 09:56:03;;;;;;;0.00;0.00;;;;;;;4.78;54.64;94205.63;4969694;28;20199;-66
2023/01/27 09:58:40;;;;;;;0.00;0.00;;;;;;;5.28;54.28;94199.59;4970220;28;20199;-67
2023/01/27 10:01:27;;;;;;;0.60;0.60;;;;;;;5.44;54.15;94193.59;4969835;28;20195;-66
2023/01/27 10:04:24;;;;;;;0.00;0.00;;;;;;;6.20;52.17;94188.28;4970054;28;20249;-67
2023/01/27 10:07:06;;;;;;;0.00;0.00;;;;;;;6.02;52.31;94186.00;4969359;28;20699;-66
2023/01/27 10:10:14;;;;;;;0.00;0.00;;;;;;;5.88;53.05;94190.78;4970118;28;20293;-67
2023/01/27 10:13:10;;;;;;;0.10;0.10;;;;;;;5.93;52.66;94184.88;4975739;28;20199;-67
2023/01/27 10:15:38;;;;;;;0.00;0.00;;;;;;;6.39;51.31;94186.88;4957197;28;20223;-65
2023/01/27 10:18:23;;;;;;;0.00;0.00;;;;;;;6.00;52.51;94188.06;4969822;28;20195;-65
2023/01/27 10:21:15;;;;;;;0.00;0.00;;;;;;;5.38;52.73;94194.56;4969355;28;20195;-65
2023/01/27 10:23:54;;;;;;;0.00;0.00;;;;;;;5.91;52.03;94189.53;4957434;28;20639;-65
2023/01/27 10:26:34;;;;;;;0.00;0.00;;;;;;;6.23;51.70;94187.78;4970143;28;20199;-66
2023/01/27 10:29:17;;;;;;;0.00;0.00;;;;;;;6.15;51.60;94185.59;4981082;28;20668;-67
2023/01/27 10:31:51;;;;;;;0.00;0.00;;;;;;;6.56;50.49;94190.16;4970100;28;20330;-68
2023/01/27 10:34:21;;;;;;;0.10;0.10;;;;;;;6.43;50.95;94180.16;4973281;28;20281;-66
2023/01/27 10:37:16;;;;;;;0.00;0.00;;;;;;;6.67;50.09;94178.00;4972904;28;20203;-66
2023/01/27 10:39:55;;;;;;;0.25;0.10;;;;;;;6.92;49.74;94171.19;4971391;28;20199;-65
2023/01/27 10:42:37;;;;;;;0.00;0.00;;;;;;;6.17;51.10;94183.53;4973298;28;20195;-66
2023/01/27 10:45:23;;;;;;;0.10;0.10;;;;;;;6.15;51.01;94177.78;4973071;28;20195;-66
2023/01/27 10:48:02;;;;;;;0.30;0.30;;;;;;;6.33;50.75;94180.06;4973245;28;20214;-67
2023/01/27 10:50:42;;;;;;;1.33;0.38;;;;;;;6.41;51.00;94169.22;4972784;28;20197;-67
2023/01/27 10:53:18;;;;;;;1.50;1.40;;;;;;;6.51;50.29;94169.31;4974097;28;20198;-67
2023/01/27 10:55:55;;;;;;;0.00;0.00;;;;;;;6.18;50.58;94172.88;4976160;28;20207;-66
2023/01/27 10:58:28;;;;;;;0.20;0.20;;;;;;;6.54;50.13;94163.59;4983401;28;20203;-65
2023/01/27 11:00:56;;;;;;;0.00;0.00;;;;;;;6.64;49.82;94174.06;4993570;28;20184;-67
2023/01/27 11:04:02;;;;;;;0.00;0.00;;;;;;;6.64;50.75;94174.06;4996313;28;20647;-67
2023/01/27 11:06:39;;;;;;;0.00;0.00;;;;;;;6.12;51.14;94170.50;4990570;28;20670;-67
2023/01/27 11:09:24;;;;;;;0.10;0.10;;;;;;;5.92;51.60;94175.47;4973105;28;20305;-67
2023/01/27 11:11:52;;;;;;;0.20;0.20;;;;;;;5.15;53.09;94174.75;4972899;28;20662;-66
2023/01/27 11:14:33;;;;;;;0.05;0.05;;;;;;;5.35;52.83;94174.22;4972980;28;20226;-66
2023/01/27 11:17:35;;;;;;;0.00;0.00;;;;;;;5.09;52.97;94168.72;4972884;28;20287;-67
2023/01/27 11:20:20;;;;;;;0.00;0.00;;;;;;;5.80;52.18;94159.22;4972869;28;20318;-66
2023/01/27 11:22:55;;;;;;;0.00;0.00;;;;;;;6.04;51.70;94147.50;4972753;28;20203;-66
2023/01/27 11:25:25;;;;;;;0.08;0.08;;;;;;;5.94;52.29;94157.81;4969946;28;20218;-65
2023/01/27 11:28:04;;;;;;;0.10;0.10;;;;;;;5.55;52.49;94156.28;4972274;28;20663;-65
2023/01/27 11:30:41;;;;;;;2.83;2.28;;;;;;;5.53;52.22;94138.34;4971235;28;20258;-65
2023/01/27 11:33:21;;;;;;;0.75;0.75;;;;;;;5.18;53.46;94154.28;4967885;28;20608;-66
2023/01/27 11:35:50;;;;;;;0.10;0.10;;;;;;;5.32;53.20;94148.75;4972323;28;20190;-65
2023/01/27 11:38:20;;;;;;;0.00;0.00;;;;;;;4.69;53.85;94147.34;4970895;28;20683;-65
2023/01/27 11:40:50;;;;;;;0.00;0.00;;;;;;;4.90;53.65;94151.84;4972128;28;20260;-64
2023/01/27 11:43:20;;;;;;;0.05;0.05;;;;;;;5.34;53.33;94142.28;4953614;28;20946;-65
2023/01/27 11:45:48;;;;;;;0.32;0.32;;;;;;;5.52;52.61;94156.78;4964509;28;20207;-64
2023/01/27 11:48:18;;;;;;;0.50;0.43;;;;;;;5.37;53.55;94147.00;4971911;28;20687;-66
2023/01/27 11:50:48;;;;;;;0.00;0.00;;;;;;;4.65;53.97;94146.25;4971410;28;20209;-65
2023/01/27 11:53:15;;;;;;;0.00;0.00;;;;;;;5.33;53.20;94150.34;4986814;28;20230;-65
2023/01/27 11:55:48;;;;;;;0.00;0.00;;;;;;;5.48;52.14;94142.72;4971401;28;20241;-65
2023/01/27 11:58:29;;;;;;;1.20;1.13;;;;;;;5.39;52.83;94144.16;4971670;28;20263;-65
2023/01/27 12:01:04;;;;;;;0.35;0.35;;;;;;;5.51;52.81;94147.44;4971172;28;20277;-66
2023/01/27 12:03:31;;;;;;;0.00;0.00;;;;;;;5.77;52.86;94138.88;4957716;28;20218;-65
2023/01/27 12:06:08;;;;;;;1.20;1.10;;;;;;;5.91;51.80;94132.31;4971317;28;20242;-65
2023/01/27 12:08:44;;;;;;;0.00;0.00;;;;;;;6.20;50.89;94125.06;4957044;28;20195;-66
2023/01/27 12:11:21;;;;;;;0.10;0.10;;;;;;;6.25;50.62;94130.28;4971462;28;20195;-65
2023/01/27 12:13:53;;;;;;;0.60;0.60;;;;;;;6.13;50.84;94126.03;4971140;28;21012;-67
2023/01/27 12:16:46;;;;;;;0.10;0.10;;;;;;;6.04;50.98;94142.31;4971378;28;20552;-66
2023/01/27 12:19:33;;;;;;;2.58;2.38;;;;;;;5.96;51.68;94145.38;4963250;28;20203;-65
2023/01/27 12:22:06;;;;;;;0.00;0.00;;;;;;;5.82;51.60;94133.75;4971016;28;20714;-65
2023/01/27 12:24:37;;;;;;;0.00;0.00;;;;;;;5.40;51.98;94130.91;4971599;28;20230;-64
2023/01/27 12:27:06;;;;;;;0.00;0.00;;;;;;;5.66;51.90;94147.59;4970849;28;20271;-65
2023/01/27 12:29:40;;;;;;;0.00;0.00;;;;;;;5.91;51.96;94143.47;4971512;28;20203;-62
2023/01/27 12:32:19;;;;;;;0.13;0.13;;;;;;;5.96;51.60;94142.78;4958809;28;20242;-68